createdAt,value
2019-03-01T00:00:46.596Z,43.53
2019-03-01T00:03:14.019Z,45.13
2019-03-01T00:05:43.037Z,47.70
2019-03-01T00:08:12.078Z,46.00
2019-03-01T00:10:54.195Z,45.37
2019-03-01T00:13:25.885Z,44.23
2019-03-01T00:15:57.658Z,44.57
2019-03-01T00:18:26.642Z,44.53
2019-03-01T00:20:58.419Z,41.60
2019-03-01T00:23:36.282Z,44.43
2019-03-01T00:26:08.217Z,43.97
2019-03-01T00:28:40.488Z,43.37
2019-03-01T00:31:09.573Z,39.13
2019-03-01T00:33:44.589Z,43.67
2019-03-01T00:36:13.562Z,43.27
2019-03-01T00:39:00.572Z,40.23
2019-03-01T00:41:29.535Z,42.43
2019-03-01T00:44:15.049Z,41.13
2019-03-01T00:46:42.521Z,40.17
2019-03-01T00:49:09.845Z,40.67
2019-03-01T00:51:37.237Z,42.27
2019-03-01T00:54:04.570Z,40.30
2019-03-01T00:56:31.914Z,41.57
2019-03-01T00:58:59.290Z,38.57
2019-03-01T01:01:26.661Z,38.67
2019-03-01T01:03:54.029Z,39.80
2019-03-01T01:06:21.534Z,39.77
2019-03-01T01:14:19.156Z,34.97
2019-03-01T01:16:46.611Z,38.20
2019-03-01T01:19:14.031Z,39.27
2019-03-01T01:21:41.534Z,37.57
2019-03-01T01:24:08.916Z,38.80
2019-03-01T01:26:36.244Z,39.93
2019-03-01T01:29:03.598Z,39.07
2019-03-01T01:31:30.995Z,41.37
2019-03-01T01:33:58.410Z,38.53
2019-03-01T01:36:25.724Z,40.33
2019-03-01T01:38:53.165Z,41.83
2019-03-01T01:41:20.466Z,37.70
2019-03-01T01:43:47.935Z,38.83
2019-03-01T01:46:15.422Z,40.20
2019-03-01T01:48:42.773Z,40.97
2019-03-01T01:51:10.474Z,42.70
2019-03-01T01:53:37.862Z,40.73
2019-03-01T01:56:05.326Z,43.03
2019-03-01T01:58:32.729Z,41.57
2019-03-01T02:01:00.192Z,41.13
2019-03-01T02:03:27.598Z,40.10
2019-03-01T02:05:55.020Z,42.63
2019-03-01T02:08:22.450Z,40.83
2019-03-01T02:10:49.782Z,41.63
2019-03-01T02:13:17.207Z,45.90
2019-03-01T02:15:44.609Z,44.87
2019-03-01T02:18:12.006Z,46.80
2019-03-01T02:20:39.515Z,44.47
2019-03-01T02:23:06.907Z,46.33
2019-03-01T02:25:36.039Z,48.67
2019-03-01T02:28:03.394Z,45.53
2019-03-01T02:30:32.435Z,44.03
2019-03-01T02:32:59.862Z,41.50
2019-03-01T02:35:27.272Z,45.93
2019-03-01T02:37:54.716Z,46.73
2019-03-01T02:40:22.136Z,43.40
2019-03-01T02:42:49.617Z,42.40
2019-03-01T02:45:17.759Z,42.53
2019-03-01T02:47:45.314Z,41.73
2019-03-01T02:50:14.020Z,42.80
2019-03-01T02:52:41.422Z,40.37
2019-03-01T02:55:10.092Z,42.03
2019-03-01T02:57:37.519Z,46.03
2019-03-01T03:00:08.004Z,47.47
2019-03-01T03:02:35.347Z,46.40
2019-03-01T03:05:02.748Z,46.27
2019-03-01T03:07:31.733Z,45.87
2019-03-01T03:09:59.076Z,49.03
2019-03-01T03:12:26.483Z,45.50
2019-03-01T03:14:54.169Z,42.43
2019-03-01T03:17:21.499Z,45.67
2019-03-01T03:19:48.870Z,43.30
2019-03-01T03:22:16.350Z,42.43
2019-03-01T03:24:43.823Z,41.93
2019-03-01T03:27:11.192Z,40.90
2019-03-01T03:29:38.598Z,41.10
2019-03-01T03:32:06.062Z,40.63
2019-03-01T03:34:33.456Z,39.47
2019-03-01T03:37:00.867Z,35.90
2019-03-01T03:39:28.359Z,37.57
2019-03-01T03:41:55.771Z,36.23
2019-03-01T03:44:23.262Z,35.33
2019-03-01T03:46:50.774Z,36.40
2019-03-01T03:49:18.144Z,36.10
2019-03-01T03:51:45.611Z,37.33
2019-03-01T03:54:13.013Z,37.27
2019-03-01T03:56:40.423Z,37.17
2019-03-01T03:59:07.858Z,39.30
2019-03-01T04:01:35.264Z,37.53
2019-03-01T04:04:02.632Z,37.97
2019-03-01T04:06:29.994Z,36.53
2019-03-01T04:08:57.455Z,39.27
2019-03-01T04:11:24.815Z,37.10
2019-03-01T04:13:52.184Z,38.43
2019-03-01T04:16:19.517Z,42.07
2019-03-01T04:18:46.869Z,40.57
2019-03-01T04:21:14.287Z,42.23
2019-03-01T04:23:41.830Z,42.87
2019-03-01T04:26:09.241Z,41.30
2019-03-01T04:28:36.690Z,41.37
2019-03-01T04:31:04.426Z,40.27
2019-03-01T04:33:31.881Z,41.03
2019-03-01T04:35:59.261Z,42.77
2019-03-01T04:38:26.605Z,44.03
2019-03-01T04:40:54.007Z,44.97
2019-03-01T04:43:21.373Z,44.87
2019-03-01T04:45:48.863Z,45.30
2019-03-01T04:48:16.190Z,42.07
2019-03-01T04:50:43.616Z,42.40
2019-03-01T04:53:11.071Z,43.23
2019-03-01T04:55:38.490Z,41.70
2019-03-01T04:58:05.928Z,42.93
2019-03-01T05:00:33.561Z,41.10
2019-03-01T05:03:01.070Z,40.20
2019-03-01T05:05:28.452Z,41.83
2019-03-01T05:07:55.891Z,42.77
2019-03-01T05:10:23.292Z,42.10
2019-03-01T05:12:50.675Z,43.27
2019-03-01T05:15:19.378Z,41.80
2019-03-01T05:17:46.747Z,45.57
2019-03-01T05:20:14.105Z,46.63
2019-03-01T05:22:41.597Z,45.73
2019-03-01T05:25:09.449Z,48.70
2019-03-01T05:27:36.936Z,48.17
2019-03-01T05:30:09.069Z,50.60
2019-03-01T05:32:36.487Z,49.53
2019-03-01T05:35:04.113Z,52.33
2019-03-01T05:37:31.469Z,56.67
2019-03-01T05:39:58.915Z,56.17
2019-03-01T05:42:26.335Z,60.57
2019-03-01T05:44:53.807Z,77.17
2019-03-01T05:47:21.161Z,57.37
2019-03-01T05:49:48.543Z,60.07
2019-03-01T05:52:15.898Z,55.67
2019-03-01T05:54:43.361Z,63.70
2019-03-01T05:57:10.865Z,60.77
2019-03-01T05:59:38.251Z,50.10
2019-03-01T06:02:23.960Z,56.70
2019-03-01T06:04:53.057Z,50.93
2019-03-01T06:07:24.722Z,54.47
2019-03-01T06:09:53.710Z,57.03
2019-03-01T06:12:37.820Z,55.90
2019-03-01T06:15:18.998Z,58.23
2019-03-01T06:17:54.107Z,53.37
2019-03-01T06:20:39.645Z,51.47
2019-03-01T06:23:14.459Z,48.77
2019-03-01T06:25:46.140Z,45.60
2019-03-01T06:28:40.454Z,46.50
2019-03-01T06:31:24.813Z,54.27
2019-03-01T06:33:56.802Z,51.00
2019-03-01T06:36:31.746Z,49.60
2019-03-01T06:39:14.218Z,51.10
2019-03-01T06:41:49.163Z,50.00
2019-03-01T06:44:27.498Z,49.20
2019-03-01T06:47:11.728Z,51.80
2019-03-01T06:49:52.738Z,49.50
2019-03-01T06:52:21.818Z,50.77
2019-03-01T06:54:49.233Z,51.10
2019-03-01T06:57:16.583Z,52.00
2019-03-01T06:59:44.038Z,51.87
2019-03-01T07:02:13.034Z,53.03
2019-03-01T07:04:40.453Z,52.83
2019-03-01T07:07:07.978Z,52.67
2019-03-01T07:09:35.388Z,55.80
2019-03-01T07:12:02.886Z,54.67
2019-03-01T07:14:30.449Z,56.03
2019-03-01T07:16:57.798Z,56.07
2019-03-01T07:19:25.121Z,54.57
2019-03-01T07:21:52.576Z,53.87
2019-03-01T07:24:20.626Z,58.00
2019-03-01T07:26:48.092Z,52.80
2019-03-01T07:29:15.530Z,55.47
2019-03-01T07:31:43.027Z,54.07
2019-03-01T07:34:10.408Z,54.87
2019-03-01T07:36:37.830Z,55.23
2019-03-01T07:39:05.976Z,55.30
2019-03-01T07:41:33.386Z,55.70
2019-03-01T07:44:00.755Z,55.80
2019-03-01T07:46:28.220Z,55.93
2019-03-01T07:48:55.638Z,53.50
2019-03-01T07:51:23.062Z,52.40
2019-03-01T07:53:50.584Z,51.90
2019-03-01T07:56:18.008Z,51.87
2019-03-01T07:58:45.366Z,49.80
2019-03-01T08:01:12.817Z,50.17
2019-03-01T08:03:40.156Z,49.20
2019-03-01T08:06:13.165Z,47.43
2019-03-01T08:08:41.577Z,48.37
2019-03-01T08:11:09.088Z,49.43
2019-03-01T08:13:36.548Z,48.40
2019-03-01T08:16:04.003Z,53.50
2019-03-01T08:18:31.441Z,49.73
2019-03-01T08:20:58.791Z,53.73
2019-03-01T08:23:26.152Z,53.63
2019-03-01T08:25:55.674Z,49.87
2019-03-01T08:28:23.069Z,49.53
2019-03-01T08:30:50.680Z,49.90
2019-03-01T08:33:18.052Z,51.13
2019-03-01T08:35:45.472Z,50.90
2019-03-01T08:38:12.949Z,47.20
2019-03-01T08:40:40.429Z,47.33
2019-03-01T08:43:11.688Z,49.93
2019-03-01T08:45:36.947Z,50.03
2019-03-01T08:48:04.391Z,49.90
2019-03-01T08:50:32.906Z,51.90
2019-03-01T08:53:00.254Z,54.50
2019-03-01T08:55:29.207Z,51.60
2019-03-01T08:57:59.681Z,51.37
2019-03-01T09:00:30.347Z,52.00
2019-03-01T09:02:59.383Z,53.43
2019-03-01T09:05:28.472Z,53.50
2019-03-01T09:07:55.999Z,51.83
2019-03-01T09:10:23.413Z,53.77
2019-03-01T09:12:50.710Z,55.40
2019-03-01T09:15:18.215Z,54.30
2019-03-01T09:17:45.781Z,53.07
2019-03-01T09:20:16.370Z,53.03
2019-03-01T09:22:44.693Z,54.10
2019-03-01T09:25:13.595Z,54.07
2019-03-01T09:27:40.938Z,56.37
2019-03-01T09:30:15.827Z,52.53
2019-03-01T09:32:43.263Z,53.43
2019-03-01T09:35:16.825Z,53.43
2019-03-01T09:37:44.218Z,52.87
2019-03-01T09:40:11.586Z,50.70
2019-03-01T09:42:39.174Z,49.83
2019-03-01T09:45:10.420Z,47.70
2019-03-01T09:47:38.016Z,47.23
2019-03-01T09:50:07.056Z,48.10
2019-03-01T09:52:34.509Z,46.90
2019-03-01T09:55:01.834Z,45.63
2019-03-01T09:57:29.195Z,43.90
2019-03-01T09:59:56.795Z,45.40
2019-03-01T10:02:24.191Z,46.50
2019-03-01T10:04:51.518Z,43.03
2019-03-01T10:07:19.033Z,46.77
2019-03-01T10:09:46.438Z,44.93
2019-03-01T10:12:13.803Z,45.77
2019-03-01T10:14:41.147Z,47.43
2019-03-01T10:17:09.112Z,46.97
2019-03-01T10:19:36.579Z,48.13
2019-03-01T10:22:03.998Z,45.17
2019-03-01T10:24:31.498Z,42.50
2019-03-01T10:26:58.977Z,40.20
2019-03-01T10:29:26.349Z,42.40
2019-03-01T10:31:53.747Z,41.30
2019-03-01T10:34:21.085Z,44.73
2019-03-01T10:36:48.510Z,43.43
2019-03-01T10:39:15.953Z,42.47
2019-03-01T10:41:43.335Z,43.03
2019-03-01T10:44:11.327Z,44.13
2019-03-01T10:46:38.955Z,52.83
2019-03-01T10:49:06.363Z,49.53
2019-03-01T10:51:33.827Z,47.17
2019-03-01T10:54:01.274Z,49.37
2019-03-01T10:56:28.723Z,47.10
2019-03-01T10:58:58.306Z,43.30
2019-03-01T11:01:25.213Z,46.97
2019-03-01T11:03:53.671Z,49.20
2019-03-01T11:06:21.483Z,48.80
2019-03-01T11:08:48.927Z,50.63
2019-03-01T11:11:19.715Z,50.07
2019-03-01T11:13:47.178Z,49.13
2019-03-01T11:16:14.534Z,50.43
2019-03-01T11:18:41.957Z,48.17
2019-03-01T11:21:09.271Z,48.83
2019-03-01T11:23:36.697Z,50.90
2019-03-01T11:26:04.250Z,51.90
2019-03-01T11:28:31.650Z,51.00
2019-03-01T11:30:59.044Z,49.07
2019-03-01T11:33:26.546Z,50.83
2019-03-01T11:35:54.016Z,50.03
2019-03-01T11:38:21.510Z,51.83
2019-03-01T11:40:49.002Z,49.77
2019-03-01T11:43:16.435Z,50.13
2019-03-01T11:45:43.819Z,48.67
2019-03-01T11:48:11.927Z,51.40
2019-03-01T11:50:40.953Z,51.87
2019-03-01T11:53:08.302Z,52.60
2019-03-01T11:55:35.824Z,50.20
2019-03-01T11:58:03.176Z,53.53
2019-03-01T12:00:30.676Z,52.43
2019-03-01T12:02:58.200Z,52.70
2019-03-01T12:05:25.839Z,53.90
2019-03-01T12:07:53.501Z,53.53
2019-03-01T12:10:21.683Z,55.97
2019-03-01T12:12:50.331Z,54.50
2019-03-01T12:15:17.846Z,54.77
2019-03-01T12:17:45.449Z,53.33
2019-03-01T12:20:13.859Z,54.83
2019-03-01T12:22:41.253Z,55.63
2019-03-01T12:25:10.477Z,56.10
2019-03-01T12:27:37.952Z,58.17
2019-03-01T12:30:07.045Z,58.13
2019-03-01T12:32:34.495Z,59.10
2019-03-01T12:35:01.969Z,55.87
2019-03-01T12:37:29.659Z,56.00
2019-03-01T12:39:57.122Z,53.63
2019-03-01T12:42:24.523Z,60.43
2019-03-01T12:44:52.360Z,58.77
2019-03-01T12:47:19.732Z,57.57
2019-03-01T12:49:47.302Z,54.37
2019-03-01T12:52:14.729Z,57.30
2019-03-01T12:54:42.122Z,57.20
2019-03-01T12:57:09.520Z,58.53
2019-03-01T12:59:36.882Z,58.60
2019-03-01T13:02:04.385Z,60.20
2019-03-01T13:04:31.757Z,59.30
2019-03-01T13:06:59.096Z,61.60
2019-03-01T13:09:26.603Z,61.10
2019-03-01T13:11:54.619Z,61.93
2019-03-01T13:14:21.983Z,61.43
2019-03-01T13:16:49.398Z,62.67
2019-03-01T13:19:16.764Z,63.50
2019-03-01T13:21:45.596Z,64.70
2019-03-01T13:24:16.552Z,64.03
2019-03-01T13:26:42.484Z,66.27
2019-03-01T13:29:09.875Z,69.10
2019-03-01T13:31:37.278Z,66.93
2019-03-01T13:34:04.710Z,71.90
2019-03-01T13:36:32.532Z,74.40
2019-03-01T13:39:00.054Z,73.43
2019-03-01T13:41:27.466Z,73.30
2019-03-01T13:43:54.914Z,70.90
2019-03-01T13:46:22.274Z,75.33
2019-03-01T13:48:50.854Z,73.37
2019-03-01T13:51:18.692Z,75.30
2019-03-01T13:53:48.961Z,73.67
2019-03-01T13:56:15.212Z,74.93
2019-03-01T13:58:42.712Z,72.73
2019-03-01T14:01:10.057Z,76.97
2019-03-01T14:03:37.590Z,73.10
2019-03-01T14:06:05.115Z,75.23
2019-03-01T14:08:32.504Z,69.67
2019-03-01T14:10:59.836Z,70.23
2019-03-01T14:13:29.176Z,73.13
2019-03-01T14:15:56.348Z,75.00
2019-03-01T14:18:23.678Z,73.80
2019-03-01T14:20:51.084Z,72.33
2019-03-01T14:23:21.318Z,72.87
2019-03-01T14:25:47.469Z,74.20
2019-03-01T14:28:14.834Z,71.40
2019-03-01T14:30:42.184Z,69.80
2019-03-01T14:33:09.682Z,70.60
2019-03-01T14:35:37.359Z,73.80
2019-03-01T14:38:04.744Z,72.93
2019-03-01T14:40:32.223Z,76.67
2019-03-01T14:42:59.651Z,74.47
2019-03-01T14:45:28.133Z,78.73
2019-03-01T14:47:55.734Z,77.60
2019-03-01T14:50:23.914Z,74.63
2019-03-01T14:52:56.596Z,76.43
2019-03-01T14:55:23.207Z,76.50
2019-03-01T14:57:55.619Z,68.43
2019-03-01T15:00:24.655Z,68.60
2019-03-01T15:02:59.508Z,69.80
2019-03-01T15:05:28.557Z,68.83
2019-03-01T15:07:56.118Z,72.00
2019-03-01T15:10:23.520Z,69.50
2019-03-01T15:12:53.886Z,70.97
2019-03-01T15:15:22.879Z,72.37
2019-03-01T15:17:49.241Z,73.57
2019-03-01T15:20:16.795Z,70.47
2019-03-01T15:22:48.545Z,67.63
2019-03-01T15:25:14.829Z,70.43
2019-03-01T15:27:42.555Z,72.30
2019-03-01T15:30:14.484Z,62.30
2019-03-01T15:32:41.903Z,71.03
2019-03-01T15:35:09.336Z,63.93
2019-03-01T15:37:36.837Z,64.87
2019-03-01T15:40:07.316Z,67.50
2019-03-01T15:42:35.793Z,70.30
2019-03-01T15:45:05.063Z,63.37
2019-03-01T15:47:33.203Z,63.57
2019-03-01T15:50:00.536Z,64.20
2019-03-01T15:52:27.899Z,61.40
2019-03-01T15:54:55.268Z,60.13
2019-03-01T15:57:22.971Z,62.73
2019-03-01T15:59:50.391Z,65.73
2019-03-01T16:02:17.857Z,66.30
2019-03-01T16:04:45.311Z,57.73
2019-03-01T16:07:13.325Z,58.80
2019-03-01T16:09:40.759Z,58.80
2019-03-01T16:12:08.211Z,57.60
2019-03-01T16:14:35.661Z,54.90
2019-03-01T16:17:03.080Z,61.40
2019-03-01T16:19:30.439Z,59.60
2019-03-01T16:21:57.860Z,59.20
2019-03-01T16:24:25.283Z,55.63
2019-03-01T16:26:52.633Z,61.13
2019-03-01T16:29:20.086Z,61.27
2019-03-01T16:31:47.569Z,62.77
2019-03-01T16:34:17.265Z,62.73
2019-03-01T16:36:46.570Z,67.17
2019-03-01T16:39:16.510Z,76.40
2019-03-01T16:41:44.030Z,70.60
2019-03-01T16:44:11.389Z,85.67
2019-03-01T16:46:38.963Z,100.37
2019-03-01T16:49:06.419Z,83.50
2019-03-01T16:51:33.768Z,82.60
2019-03-01T16:54:01.277Z,85.37
2019-03-01T16:56:30.159Z,71.03
2019-03-01T16:59:00.342Z,80.33
2019-03-01T17:01:29.778Z,78.40
2019-03-01T17:03:55.876Z,74.73
2019-03-01T17:06:23.273Z,71.07
2019-03-01T17:08:50.769Z,87.83
2019-03-01T17:11:18.177Z,90.33
2019-03-01T17:13:45.639Z,82.53
2019-03-01T17:16:13.061Z,76.53
2019-03-01T17:18:40.504Z,77.53
2019-03-01T17:21:08.767Z,94.77
2019-03-01T17:23:39.299Z,78.63
2019-03-01T17:26:05.381Z,83.60
2019-03-01T17:28:32.780Z,79.67
2019-03-01T17:31:00.264Z,97.90
2019-03-01T17:33:27.704Z,84.00
2019-03-01T17:35:55.319Z,85.90
2019-03-01T17:38:24.649Z,75.57
2019-03-01T17:40:54.791Z,72.13
2019-03-01T17:43:22.264Z,70.90
2019-03-01T17:45:49.606Z,78.90
2019-03-01T17:48:18.377Z,71.30
2019-03-01T17:50:46.129Z,75.87
2019-03-01T17:53:13.562Z,74.90
2019-03-01T17:55:40.954Z,69.67
2019-03-01T17:58:09.028Z,74.93
2019-03-01T18:00:39.119Z,74.33
2019-03-01T18:03:06.691Z,66.87
2019-03-01T18:05:40.398Z,67.03
2019-03-01T18:08:04.978Z,65.87
2019-03-01T18:10:33.081Z,58.33
2019-03-01T18:13:00.706Z,37.33
2019-03-01T18:15:28.055Z,30.40
2019-03-01T18:17:55.442Z,34.77
2019-03-01T18:20:22.862Z,34.90
2019-03-01T18:22:50.223Z,35.93
2019-03-01T18:25:17.936Z,33.70
2019-03-01T18:27:45.449Z,36.43
2019-03-01T18:30:19.992Z,32.77
2019-03-01T18:32:46.249Z,37.47
2019-03-01T18:35:13.718Z,33.90
2019-03-01T18:37:41.092Z,31.17
2019-03-01T18:40:10.076Z,37.30
2019-03-01T18:42:38.081Z,31.57
2019-03-01T18:45:08.054Z,33.43
2019-03-01T18:47:35.646Z,30.60
2019-03-01T18:50:04.026Z,46.37
2019-03-01T18:52:31.419Z,49.13
2019-03-01T18:54:58.974Z,48.13
2019-03-01T18:57:26.452Z,56.90
2019-03-01T18:59:56.433Z,44.33
2019-03-01T19:02:24.344Z,52.20
2019-03-01T19:04:52.122Z,50.33
2019-03-01T19:07:19.492Z,45.47
2019-03-01T19:09:48.728Z,39.53
2019-03-01T19:12:16.201Z,43.77
2019-03-01T19:14:43.534Z,40.43
2019-03-01T19:17:11.003Z,42.23
2019-03-01T19:19:38.528Z,38.10
2019-03-01T19:22:06.048Z,36.67
2019-03-01T19:24:42.687Z,35.23
2019-03-01T19:27:02.774Z,39.43
2019-03-01T19:29:30.181Z,46.13
2019-03-01T19:31:57.516Z,50.70
2019-03-01T19:34:24.888Z,48.57
2019-03-01T19:36:52.305Z,43.27
2019-03-01T19:39:20.030Z,42.90
2019-03-01T19:41:47.452Z,45.43
2019-03-01T19:44:15.356Z,47.17
2019-03-01T19:46:47.633Z,48.27
2019-03-01T19:49:13.900Z,39.53
2019-03-01T19:51:41.329Z,40.87
2019-03-01T19:54:08.760Z,41.90
2019-03-01T19:56:36.214Z,40.20
2019-03-01T19:59:05.300Z,40.93
2019-03-01T20:01:32.881Z,42.50
2019-03-01T20:04:00.365Z,42.20
2019-03-01T20:06:27.921Z,39.63
2019-03-01T20:08:55.497Z,43.03
2019-03-01T20:11:23.408Z,39.07
2019-03-01T20:13:53.723Z,38.27
2019-03-01T20:16:23.412Z,39.43
2019-03-01T20:18:50.955Z,39.33
2019-03-01T20:21:18.407Z,37.80
2019-03-01T20:23:45.968Z,36.77
2019-03-01T20:26:14.297Z,40.87
2019-03-01T20:28:43.394Z,42.97
2019-03-01T20:31:10.843Z,44.60
2019-03-01T20:33:38.298Z,43.00
2019-03-01T20:36:06.287Z,46.33
2019-03-01T20:38:36.993Z,45.00
2019-03-01T20:41:03.258Z,44.40
2019-03-01T20:43:31.299Z,45.27
2019-03-01T20:45:58.851Z,45.37
2019-03-01T20:48:28.926Z,44.97
2019-03-01T20:50:55.349Z,43.60
2019-03-01T20:53:22.968Z,41.97
2019-03-01T20:55:51.108Z,44.27
2019-03-01T20:58:18.749Z,44.80
2019-03-01T21:00:46.121Z,45.43
2019-03-01T21:03:13.551Z,44.70
2019-03-01T21:05:40.987Z,46.60
2019-03-01T21:08:09.241Z,49.50
2019-03-01T21:10:36.932Z,47.80
2019-03-01T21:13:04.453Z,48.67
2019-03-01T21:15:34.658Z,46.23
2019-03-01T21:18:01.337Z,49.27
2019-03-01T21:20:28.877Z,46.77
2019-03-01T21:22:56.235Z,50.13
2019-03-01T21:25:24.202Z,43.40
2019-03-01T21:27:51.565Z,46.37
2019-03-01T21:30:28.610Z,47.13
2019-03-01T21:32:56.091Z,45.60
2019-03-01T21:35:23.593Z,47.27
2019-03-01T21:37:52.768Z,50.00
2019-03-01T21:40:20.262Z,51.07
2019-03-01T21:42:47.614Z,51.10
2019-03-01T21:45:21.525Z,52.93
2019-03-01T21:47:48.070Z,52.47
2019-03-01T21:50:14.442Z,49.83
2019-03-01T21:52:42.029Z,52.77
2019-03-01T21:55:10.439Z,49.67
2019-03-01T21:57:38.160Z,54.97
2019-03-01T22:00:07.301Z,50.70
2019-03-01T22:02:34.841Z,50.90
2019-03-01T22:05:02.394Z,55.67
2019-03-01T22:07:30.185Z,52.33
2019-03-01T22:09:59.578Z,55.80
2019-03-01T22:12:29.999Z,58.27
2019-03-01T22:14:57.413Z,55.43
2019-03-01T22:17:25.495Z,55.73
2019-03-01T22:19:53.026Z,55.13
2019-03-01T22:22:20.518Z,54.23
2019-03-01T22:24:47.915Z,46.43
2019-03-01T22:27:15.348Z,50.43
2019-03-01T22:29:43.553Z,50.73
2019-03-01T22:32:11.922Z,49.63
2019-03-01T22:34:39.334Z,47.93
2019-03-01T22:37:06.837Z,47.23
2019-03-01T22:39:34.385Z,47.00
2019-03-01T22:42:01.882Z,44.27
2019-03-01T22:44:29.263Z,44.43
2019-03-01T22:46:57.937Z,43.97
2019-03-01T22:49:28.593Z,45.43
2019-03-01T22:51:55.221Z,42.90
2019-03-01T22:54:22.547Z,42.23
2019-03-01T22:56:49.984Z,42.13
2019-03-01T22:59:17.350Z,42.43
2019-03-01T23:01:45.015Z,44.23
2019-03-01T23:04:12.462Z,43.03
2019-03-01T23:06:39.888Z,41.70
2019-03-01T23:09:10.754Z,44.00
2019-03-01T23:11:38.003Z,43.70
2019-03-01T23:14:05.482Z,44.30
2019-03-01T23:16:32.887Z,42.97
2019-03-01T23:19:00.412Z,44.77
2019-03-01T23:21:28.748Z,43.17
2019-03-01T23:23:59.573Z,42.77
2019-03-01T23:26:25.291Z,41.43
2019-03-01T23:28:52.673Z,41.70
2019-03-01T23:31:20.232Z,42.00
2019-03-01T23:33:47.622Z,43.57
2019-03-01T23:36:15.031Z,43.00
2019-03-01T23:38:50.133Z,42.67
2019-03-01T23:41:18.096Z,42.27
2019-03-01T23:43:45.448Z,45.17
2019-03-01T23:46:12.854Z,44.30
2019-03-01T23:48:40.272Z,42.43
2019-03-01T23:51:10.567Z,45.80
2019-03-01T23:53:36.885Z,44.93
2019-03-01T23:56:04.240Z,44.50
2019-03-01T23:58:31.766Z,45.47
